To NAV CANADA Home Page Login to a new session Search on AWWS site Disclaimer Vers la page française équivalente Tips FAQ What's new on the site To the Forecasts and Observations / NOTAM section To "File a Flight Plan" website Publications and other links Update of the User's profile FIC Telephone Numbers My Weather Data Folder Route Weather Data Regional Weather Data Local Weather Data To the Forecasts and Observations / NOTAM section
Request Generated 11/13/2018 at 18:04:27 UTC . Weather information available at that time is displayed.

METAR/TAF

LA GRANDE RIVIERE/QC    

METAR CYGL 131800Z 23013G22KT 1 1/2SM -SN BKN011 OVC015 M10/M13 A2986 RMK SC5SC3 VIS VRB 1-2 /S01/ SLP133=
METAR CYGL 131700Z 24016KT 1 1/2SM -SN BKN011 OVC016 M09/M11 A2986 RMK SC5SC3 VIS VRB 1-2 SLP132=
METAR CYGL 131600Z 26010KT 1SM -SN OVC011 M09/M10 A2986 RMK SC8 SLP131=

TAF CYGL 131749Z 1318/1418 24012G22KT 11/2SM -SHSN OVC015 TEMPO
1318/1321 3SM -SN OVC025
FM132100 23015G25KT 6SM -SHSN SCT020 OVC030 TEMPO 1321/1324
21/2SM -SHSN OVC020
BECMG 1321/1323 20012KT
FM140000 20012KT P6SM FEW020 SCT080 TEMPO 1400/1403 BKN020
FM140300 18010KT P6SM SCT010 BKN080 TEMPO 1403/1407 5SM -SN
BKN010 OVC040
BECMG 1404/1406 28008KT
FM140700 28012G22KT 2SM -SHSN OVC015 PROB30 1407/1409 11/2SM
-SHSN
FM140900 28015G25KT 6SM -SN SCT015 OVC030 TEMPO 1409/1415 2SM -SN
OVC015 PROB30 1409/1415 11/2SM -SN BLSN
FM141500 28012G22KT P6SM -SN SCT020 OVC030
RMK NXT FCST BY 140000Z=
Your time UTC time
Weather data provided by Environment Canada and NAV CANADA